sensor_id;sensor_type;location;lat;lon;timestamp;P1;durP1;ratioP1;P2;durP2;ratioP2
7162;SDS011;3623;47.098;15.446;2023-07-13T00:01:52;3.03;;;1.50;;
7162;SDS011;3623;47.098;15.446;2023-07-13T00:04:20;1.20;;;1.10;;
7162;SDS011;3623;47.098;15.446;2023-07-13T00:06:50;1.67;;;1.47;;
7162;SDS011;3623;47.098;15.446;2023-07-13T00:09:19;1.50;;;1.40;;
7162;SDS011;3623;47.098;15.446;2023-07-13T00:11:49;2.23;;;1.40;;
7162;SDS011;3623;47.098;15.446;2023-07-13T00:14:18;1.47;;;1.37;;
7162;SDS011;3623;47.098;15.446;2023-07-13T00:16:45;2.33;;;1.40;;
7162;SDS011;3623;47.098;15.446;2023-07-13T00:19:13;1.30;;;1.20;;
7162;SDS011;3623;47.098;15.446;2023-07-13T00:21:41;1.30;;;1.20;;
7162;SDS011;3623;47.098;15.446;2023-07-13T00:24:11;1.37;;;1.20;;
7162;SDS011;3623;47.098;15.446;2023-07-13T00:26:49;1.60;;;1.43;;
7162;SDS011;3623;47.098;15.446;2023-07-13T00:29:17;2.33;;;1.27;;
7162;SDS011;3623;47.098;15.446;2023-07-13T00:31:46;1.70;;;1.60;;
7162;SDS011;3623;47.098;15.446;2023-07-13T00:34:13;1.40;;;1.30;;
7162;SDS011;3623;47.098;15.446;2023-07-13T00:36:40;2.40;;;1.27;;
7162;SDS011;3623;47.098;15.446;2023-07-13T00:39:08;1.43;;;1.33;;
7162;SDS011;3623;47.098;15.446;2023-07-13T00:41:35;2.17;;;1.30;;
7162;SDS011;3623;47.098;15.446;2023-07-13T00:44:04;1.67;;;1.40;;
7162;SDS011;3623;47.098;15.446;2023-07-13T00:46:32;5.40;;;1.60;;
7162;SDS011;3623;47.098;15.446;2023-07-13T00:49:02;1.50;;;0.90;;
7162;SDS011;3623;47.098;15.446;2023-07-13T00:51:36;1.20;;;1.03;;
7162;SDS011;3623;47.098;15.446;2023-07-13T00:54:09;1.23;;;1.20;;
7162;SDS011;3623;47.098;15.446;2023-07-13T00:56:41;3.23;;;1.23;;
7162;SDS011;3623;47.098;15.446;2023-07-13T00:59:12;2.50;;;1.63;;
7162;SDS011;3623;47.098;15.446;2023-07-13T01:01:41;1.50;;;1.50;;
7162;SDS011;3623;47.098;15.446;2023-07-13T01:04:09;2.50;;;1.50;;
7162;SDS011;3623;47.098;15.446;2023-07-13T01:06:37;3.10;;;1.77;;
7162;SDS011;3623;47.098;15.446;2023-07-13T01:09:06;4.13;;;1.53;;
7162;SDS011;3623;47.098;15.446;2023-07-13T01:11:35;2.83;;;1.37;;
7162;SDS011;3623;47.098;15.446;2023-07-13T01:14:05;2.20;;;1.43;;
7162;SDS011;3623;47.098;15.446;2023-07-13T01:16:34;1.73;;;1.63;;
7162;SDS011;3623;47.098;15.446;2023-07-13T01:19:03;2.10;;;1.53;;
7162;SDS011;3623;47.098;15.446;2023-07-13T01:21:40;5.50;;;1.87;;
7162;SDS011;3623;47.098;15.446;2023-07-13T01:24:08;2.20;;;1.27;;
7162;SDS011;3623;47.098;15.446;2023-07-13T01:26:35;2.30;;;1.50;;
7162;SDS011;3623;47.098;15.446;2023-07-13T01:29:02;2.80;;;1.80;;
7162;SDS011;3623;47.098;15.446;2023-07-13T01:31:30;2.23;;;2.03;;
7162;SDS011;3623;47.098;15.446;2023-07-13T01:33:57;2.23;;;2.13;;
7162;SDS011;3623;47.098;15.446;2023-07-13T01:36:26;2.67;;;2.10;;
7162;SDS011;3623;47.098;15.446;2023-07-13T01:39:03;2.07;;;1.97;;
7162;SDS011;3623;47.098;15.446;2023-07-13T01:41:33;3.90;;;2.50;;
7162;SDS011;3623;47.098;15.446;2023-07-13T01:44:00;5.60;;;3.03;;
7162;SDS011;3623;47.098;15.446;2023-07-13T01:46:38;3.03;;;2.70;;
7162;SDS011;3623;47.098;15.446;2023-07-13T01:49:08;2.87;;;2.67;;
7162;SDS011;3623;47.098;15.446;2023-07-13T01:51:41;2.60;;;2.40;;
7162;SDS011;3623;47.098;15.446;2023-07-13T01:54:18;4.03;;;3.30;;
7162;SDS011;3623;47.098;15.446;2023-07-13T01:56:48;3.60;;;3.30;;
7162;SDS011;3623;47.098;15.446;2023-07-13T01:59:22;3.47;;;3.10;;
7162;SDS011;3623;47.098;15.446;2023-07-13T02:01:49;5.40;;;3.77;;
7162;SDS011;3623;47.098;15.446;2023-07-13T02:04:16;4.77;;;4.30;;
7162;SDS011;3623;47.098;15.446;2023-07-13T02:06:48;3.70;;;3.27;;
7162;SDS011;3623;47.098;15.446;2023-07-13T02:09:20;4.30;;;3.50;;
7162;SDS011;3623;47.098;15.446;2023-07-13T02:11:47;6.77;;;4.33;;
7162;SDS011;3623;47.098;15.446;2023-07-13T02:14:14;4.37;;;4.07;;
7162;SDS011;3623;47.098;15.446;2023-07-13T02:16:42;3.60;;;3.40;;
7162;SDS011;3623;47.098;15.446;2023-07-13T02:19:09;5.27;;;3.77;;
7162;SDS011;3623;47.098;15.446;2023-07-13T02:21:39;9.90;;;3.63;;
7162;SDS011;3623;47.098;15.446;2023-07-13T02:24:09;6.37;;;3.60;;
7162;SDS011;3623;47.098;15.446;2023-07-13T02:26:44;5.30;;;4.80;;
7162;SDS011;3623;47.098;15.446;2023-07-13T02:29:14;4.87;;;4.47;;
7162;SDS011;3623;47.098;15.446;2023-07-13T02:31:50;8.73;;;5.30;;
7162;SDS011;3623;47.098;15.446;2023-07-13T02:34:17;4.83;;;4.43;;
7162;SDS011;3623;47.098;15.446;2023-07-13T02:36:45;5.00;;;4.60;;
7162;SDS011;3623;47.098;15.446;2023-07-13T02:39:13;4.40;;;4.00;;
7162;SDS011;3623;47.098;15.446;2023-07-13T02:41:40;4.17;;;3.87;;
7162;SDS011;3623;47.098;15.446;2023-07-13T02:44:09;4.87;;;3.97;;
7162;SDS011;3623;47.098;15.446;2023-07-13T02:46:39;3.20;;;3.00;;
7162;SDS011;3623;47.098;15.446;2023-07-13T02:49:06;3.23;;;2.93;;
7162;SDS011;3623;47.098;15.446;2023-07-13T02:51:33;3.20;;;2.60;;
7162;SDS011;3623;47.098;15.446;2023-07-13T02:54:04;4.00;;;3.23;;
7162;SDS011;3623;47.098;15.446;2023-07-13T02:56:34;4.30;;;2.70;;
7162;SDS011;3623;47.098;15.446;2023-07-13T02:59:01;3.60;;;3.30;;
7162;SDS011;3623;47.098;15.446;2023-07-13T03:01:38;3.13;;;2.80;;
7162;SDS011;3623;47.098;15.446;2023-07-13T03:04:10;3.50;;;3.20;;
7162;SDS011;3623;47.098;15.446;2023-07-13T03:06:37;3.23;;;3.03;;
7162;SDS011;3623;47.098;15.446;2023-07-13T03:09:05;3.20;;;2.90;;
7162;SDS011;3623;47.098;15.446;2023-07-13T03:11:33;6.33;;;3.40;;
7162;SDS011;3623;47.098;15.446;2023-07-13T03:14:00;3.67;;;2.87;;
7162;SDS011;3623;47.098;15.446;2023-07-13T03:16:27;4.97;;;3.30;;
7162;SDS011;3623;47.098;15.446;2023-07-13T03:18:56;5.07;;;2.80;;
7162;SDS011;3623;47.098;15.446;2023-07-13T03:21:23;4.07;;;3.30;;
7162;SDS011;3623;47.098;15.446;2023-07-13T03:23:51;2.87;;;2.67;;
7162;SDS011;3623;47.098;15.446;2023-07-13T03:26:19;4.00;;;3.57;;
7162;SDS011;3623;47.098;15.446;2023-07-13T03:28:46;4.17;;;2.90;;
7162;SDS011;3623;47.098;15.446;2023-07-13T03:31:15;3.40;;;3.00;;
7162;SDS011;3623;47.098;15.446;2023-07-13T03:33:44;3.00;;;2.80;;
7162;SDS011;3623;47.098;15.446;2023-07-13T03:36:14;3.20;;;3.00;;
7162;SDS011;3623;47.098;15.446;2023-07-13T03:38:44;3.60;;;3.30;;
7162;SDS011;3623;47.098;15.446;2023-07-13T03:41:12;3.53;;;3.33;;
7162;SDS011;3623;47.098;15.446;2023-07-13T03:43:39;5.67;;;3.20;;
7162;SDS011;3623;47.098;15.446;2023-07-13T03:46:06;8.70;;;3.90;;
7162;SDS011;3623;47.098;15.446;2023-07-13T03:48:33;4.17;;;3.77;;
7162;SDS011;3623;47.098;15.446;2023-07-13T03:51:03;3.80;;;3.43;;
7162;SDS011;3623;47.098;15.446;2023-07-13T03:53:37;3.90;;;3.57;;
7162;SDS011;3623;47.098;15.446;2023-07-13T03:56:06;3.90;;;3.60;;
7162;SDS011;3623;47.098;15.446;2023-07-13T03:58:45;3.70;;;3.40;;
7162;SDS011;3623;47.098;15.446;2023-07-13T04:05:14;4.80;;;3.83;;
7162;SDS011;3623;47.098;15.446;2023-07-13T04:07:41;4.93;;;3.33;;
7162;SDS011;3623;47.098;15.446;2023-07-13T04:10:10;5.37;;;4.87;;
7162;SDS011;3623;47.098;15.446;2023-07-13T04:12:37;4.50;;;4.10;;
7162;SDS011;3623;47.098;15.446;2023-07-13T04:15:05;3.90;;;3.50;;
7162;SDS011;3623;47.098;15.446;2023-07-13T04:17:33;3.90;;;3.67;;
7162;SDS011;3623;47.098;15.446;2023-07-13T04:20:00;5.40;;;4.20;;
7162;SDS011;3623;47.098;15.446;2023-07-13T04:22:29;4.10;;;3.80;;
7162;SDS011;3623;47.098;15.446;2023-07-13T04:24:56;5.70;;;4.13;;
7162;SDS011;3623;47.098;15.446;2023-07-13T04:27:25;4.00;;;3.70;;
7162;SDS011;3623;47.098;15.446;2023-07-13T04:29:54;4.80;;;4.40;;
7162;SDS011;3623;47.098;15.446;2023-07-13T04:32:21;4.97;;;3.83;;
7162;SDS011;3623;47.098;15.446;2023-07-13T04:34:48;4.03;;;3.70;;
7162;SDS011;3623;47.098;15.446;2023-07-13T04:37:18;3.30;;;3.10;;
7162;SDS011;3623;47.098;15.446;2023-07-13T04:39:47;4.03;;;3.80;;
7162;SDS011;3623;47.098;15.446;2023-07-13T04:42:14;4.17;;;3.87;;
7162;SDS011;3623;47.098;15.446;2023-07-13T04:44:46;3.73;;;3.43;;
7162;SDS011;3623;47.098;15.446;2023-07-13T04:47:14;3.77;;;3.50;;
7162;SDS011;3623;47.098;15.446;2023-07-13T04:49:41;4.00;;;3.60;;
7162;SDS011;3623;47.098;15.446;2023-07-13T04:52:25;3.80;;;3.50;;
7162;SDS011;3623;47.098;15.446;2023-07-13T04:54:56;4.40;;;3.77;;
7162;SDS011;3623;47.098;15.446;2023-07-13T04:57:23;5.37;;;4.00;;
7162;SDS011;3623;47.098;15.446;2023-07-13T04:59:52;3.70;;;3.40;;
7162;SDS011;3623;47.098;15.446;2023-07-13T05:02:20;4.83;;;3.90;;
7162;SDS011;3623;47.098;15.446;2023-07-13T05:04:48;4.13;;;3.87;;
7162;SDS011;3623;47.098;15.446;2023-07-13T05:07:15;5.03;;;3.73;;
7162;SDS011;3623;47.098;15.446;2023-07-13T05:09:42;3.87;;;3.67;;
7162;SDS011;3623;47.098;15.446;2023-07-13T05:12:10;4.30;;;3.90;;
7162;SDS011;3623;47.098;15.446;2023-07-13T05:14:37;6.23;;;3.67;;
7162;SDS011;3623;47.098;15.446;2023-07-13T05:17:06;3.30;;;3.10;;
7162;SDS011;3623;47.098;15.446;2023-07-13T05:19:33;6.10;;;3.30;;
7162;SDS011;3623;47.098;15.446;2023-07-13T05:22:00;3.10;;;2.80;;
7162;SDS011;3623;47.098;15.446;2023-07-13T05:24:29;3.37;;;3.07;;
7162;SDS011;3623;47.098;15.446;2023-07-13T05:26:57;3.10;;;2.80;;
7162;SDS011;3623;47.098;15.446;2023-07-13T05:29:24;3.50;;;3.10;;
7162;SDS011;3623;47.098;15.446;2023-07-13T05:31:51;2.63;;;2.50;;
7162;SDS011;3623;47.098;15.446;2023-07-13T05:34:20;2.73;;;2.53;;
7162;SDS011;3623;47.098;15.446;2023-07-13T05:36:47;4.03;;;2.70;;
7162;SDS011;3623;47.098;15.446;2023-07-13T05:39:14;3.13;;;2.90;;
7162;SDS011;3623;47.098;15.446;2023-07-13T05:41:42;2.70;;;2.57;;
7162;SDS011;3623;47.098;15.446;2023-07-13T05:44:09;5.40;;;2.90;;
7162;SDS011;3623;47.098;15.446;2023-07-13T05:46:36;3.00;;;2.70;;
7162;SDS011;3623;47.098;15.446;2023-07-13T05:49:10;2.70;;;2.50;;
7162;SDS011;3623;47.098;15.446;2023-07-13T05:51:39;3.37;;;3.07;;
7162;SDS011;3623;47.098;15.446;2023-07-13T05:54:06;2.83;;;2.60;;
7162;SDS011;3623;47.098;15.446;2023-07-13T05:56:35;4.97;;;2.43;;
7162;SDS011;3623;47.098;15.446;2023-07-13T05:59:03;2.90;;;2.57;;
7162;SDS011;3623;47.098;15.446;2023-07-13T06:01:30;4.70;;;2.53;;
7162;SDS011;3623;47.098;15.446;2023-07-13T06:03:58;4.03;;;2.60;;
7162;SDS011;3623;47.098;15.446;2023-07-13T06:06:25;2.07;;;1.97;;
7162;SDS011;3623;47.098;15.446;2023-07-13T06:08:54;2.73;;;2.53;;
7162;SDS011;3623;47.098;15.446;2023-07-13T06:11:22;4.80;;;2.60;;
7162;SDS011;3623;47.098;15.446;2023-07-13T06:13:50;2.53;;;2.43;;
7162;SDS011;3623;47.098;15.446;2023-07-13T06:16:34;2.57;;;2.33;;
7162;SDS011;3623;47.098;15.446;2023-07-13T06:19:03;2.90;;;2.70;;
7162;SDS011;3623;47.098;15.446;2023-07-13T06:21:31;2.97;;;2.77;;
7162;SDS011;3623;47.098;15.446;2023-07-13T06:24:00;3.07;;;2.40;;
7162;SDS011;3623;47.098;15.446;2023-07-13T06:26:27;7.83;;;2.73;;
7162;SDS011;3623;47.098;15.446;2023-07-13T06:28:54;6.33;;;2.23;;
7162;SDS011;3623;47.098;15.446;2023-07-13T06:31:21;2.73;;;2.60;;
7162;SDS011;3623;47.098;15.446;2023-07-13T06:33:48;2.53;;;2.40;;
7162;SDS011;3623;47.098;15.446;2023-07-13T06:36:15;2.07;;;1.97;;
7162;SDS011;3623;47.098;15.446;2023-07-13T06:38:42;3.10;;;2.77;;
7162;SDS011;3623;47.098;15.446;2023-07-13T06:41:11;4.60;;;2.37;;
7162;SDS011;3623;47.098;15.446;2023-07-13T06:43:38;3.23;;;2.67;;
7162;SDS011;3623;47.098;15.446;2023-07-13T06:46:05;2.83;;;2.63;;
7162;SDS011;3623;47.098;15.446;2023-07-13T06:48:32;2.50;;;2.30;;
7162;SDS011;3623;47.098;15.446;2023-07-13T06:50:59;2.23;;;2.10;;
7162;SDS011;3623;47.098;15.446;2023-07-13T06:53:28;3.07;;;2.50;;
7162;SDS011;3623;47.098;15.446;2023-07-13T06:55:55;3.93;;;2.30;;
7162;SDS011;3623;47.098;15.446;2023-07-13T06:58:24;2.43;;;2.33;;
7162;SDS011;3623;47.098;15.446;2023-07-13T07:00:51;2.63;;;2.10;;
7162;SDS011;3623;47.098;15.446;2023-07-13T07:03:18;2.10;;;1.93;;
7162;SDS011;3623;47.098;15.446;2023-07-13T07:05:46;1.97;;;1.60;;
7162;SDS011;3623;47.098;15.446;2023-07-13T07:08:14;2.20;;;2.00;;
7162;SDS011;3623;47.098;15.446;2023-07-13T07:10:41;6.57;;;2.17;;
7162;SDS011;3623;47.098;15.446;2023-07-13T07:13:08;2.33;;;1.87;;
7162;SDS011;3623;47.098;15.446;2023-07-13T07:15:37;2.87;;;1.60;;
7162;SDS011;3623;47.098;15.446;2023-07-13T07:18:04;2.40;;;1.60;;
7162;SDS011;3623;47.098;15.446;2023-07-13T07:20:31;2.17;;;1.73;;
7162;SDS011;3623;47.098;15.446;2023-07-13T07:22:58;2.37;;;2.17;;
7162;SDS011;3623;47.098;15.446;2023-07-13T07:25:25;1.63;;;1.50;;
7162;SDS011;3623;47.098;15.446;2023-07-13T07:27:52;1.83;;;1.73;;
7162;SDS011;3623;47.098;15.446;2023-07-13T07:30:22;3.17;;;1.53;;
7162;SDS011;3623;47.098;15.446;2023-07-13T07:33:15;1.50;;;1.40;;
7162;SDS011;3623;47.098;15.446;2023-07-13T07:36:23;1.83;;;1.60;;
7162;SDS011;3623;47.098;15.446;2023-07-13T07:39:09;1.40;;;1.30;;
7162;SDS011;3623;47.098;15.446;2023-07-13T07:41:38;2.13;;;1.50;;
7162;SDS011;3623;47.098;15.446;2023-07-13T07:44:05;2.47;;;1.83;;
7162;SDS011;3623;47.098;15.446;2023-07-13T07:46:35;1.27;;;1.27;;
7162;SDS011;3623;47.098;15.446;2023-07-13T07:49:04;1.47;;;1.30;;
7162;SDS011;3623;47.098;15.446;2023-07-13T07:51:31;1.77;;;1.30;;
7162;SDS011;3623;47.098;15.446;2023-07-13T07:53:59;2.40;;;1.27;;
7162;SDS011;3623;47.098;15.446;2023-07-13T07:56:26;1.00;;;0.90;;
7162;SDS011;3623;47.098;15.446;2023-07-13T07:58:55;1.80;;;1.70;;
7162;SDS011;3623;47.098;15.446;2023-07-13T08:01:22;1.10;;;1.10;;
7162;SDS011;3623;47.098;15.446;2023-07-13T08:03:49;1.50;;;1.40;;
7162;SDS011;3623;47.098;15.446;2023-07-13T08:06:19;0.90;;;0.90;;
7162;SDS011;3623;47.098;15.446;2023-07-13T08:08:47;1.30;;;1.00;;
7162;SDS011;3623;47.098;15.446;2023-07-13T08:11:17;0.97;;;0.97;;
7162;SDS011;3623;47.098;15.446;2023-07-13T08:13:44;3.17;;;1.20;;
7162;SDS011;3623;47.098;15.446;2023-07-13T08:16:11;1.23;;;1.23;;
7162;SDS011;3623;47.098;15.446;2023-07-13T08:18:46;1.10;;;1.10;;
7162;SDS011;3623;47.098;15.446;2023-07-13T08:21:16;1.13;;;1.07;;
7162;SDS011;3623;47.098;15.446;2023-07-13T08:23:46;1.43;;;0.90;;
7162;SDS011;3623;47.098;15.446;2023-07-13T08:26:13;1.13;;;1.10;;
7162;SDS011;3623;47.098;15.446;2023-07-13T08:28:40;1.10;;;1.10;;
7162;SDS011;3623;47.098;15.446;2023-07-13T08:31:08;0.90;;;0.80;;
7162;SDS011;3623;47.098;15.446;2023-07-13T08:33:35;1.10;;;1.00;;
7162;SDS011;3623;47.098;15.446;2023-07-13T08:36:03;1.43;;;0.90;;
7162;SDS011;3623;47.098;15.446;2023-07-13T08:38:31;1.00;;;1.00;;
7162;SDS011;3623;47.098;15.446;2023-07-13T08:41:02;1.23;;;0.90;;
7162;SDS011;3623;47.098;15.446;2023-07-13T08:43:38;1.10;;;1.00;;
7162;SDS011;3623;47.098;15.446;2023-07-13T08:46:08;1.30;;;1.30;;
7162;SDS011;3623;47.098;15.446;2023-07-13T08:48:41;1.60;;;1.20;;
7162;SDS011;3623;47.098;15.446;2023-07-13T08:51:14;1.10;;;1.10;;
7162;SDS011;3623;47.098;15.446;2023-07-13T08:53:54;1.57;;;0.90;;
7162;SDS011;3623;47.098;15.446;2023-07-13T08:56:27;1.50;;;1.40;;
7162;SDS011;3623;47.098;15.446;2023-07-13T08:58:57;7.10;;;1.27;;
7162;SDS011;3623;47.098;15.446;2023-07-13T09:01:47;1.40;;;1.30;;
7162;SDS011;3623;47.098;15.446;2023-07-13T09:04:35;1.33;;;1.23;;
7162;SDS011;3623;47.098;15.446;2023-07-13T09:15:28;1.07;;;1.07;;
7162;SDS011;3623;47.098;15.446;2023-07-13T09:18:08;1.37;;;1.27;;
7162;SDS011;3623;47.098;15.446;2023-07-13T09:20:39;1.27;;;1.00;;
7162;SDS011;3623;47.098;15.446;2023-07-13T09:23:13;1.30;;;1.20;;
7162;SDS011;3623;47.098;15.446;2023-07-13T09:25:43;1.00;;;1.00;;
7162;SDS011;3623;47.098;15.446;2023-07-13T09:28:17;1.40;;;1.40;;
7162;SDS011;3623;47.098;15.446;2023-07-13T09:30:52;1.30;;;1.20;;
7162;SDS011;3623;47.098;15.446;2023-07-13T09:33:24;1.17;;;1.00;;
7162;SDS011;3623;47.098;15.446;2023-07-13T09:35:54;1.33;;;1.20;;
7162;SDS011;3623;47.098;15.446;2023-07-13T09:38:43;1.40;;;1.30;;
7162;SDS011;3623;47.098;15.446;2023-07-13T09:44:51;1.80;;;1.30;;
7162;SDS011;3623;47.098;15.446;2023-07-13T09:47:22;1.10;;;1.10;;
7162;SDS011;3623;47.098;15.446;2023-07-13T09:49:55;1.43;;;1.33;;
7162;SDS011;3623;47.098;15.446;2023-07-13T09:52:23;1.57;;;1.50;;
7162;SDS011;3623;47.098;15.446;2023-07-13T09:54:53;2.00;;;0.90;;
7162;SDS011;3623;47.098;15.446;2023-07-13T09:57:25;1.10;;;1.10;;
7162;SDS011;3623;47.098;15.446;2023-07-13T09:59:55;4.03;;;1.20;;
7162;SDS011;3623;47.098;15.446;2023-07-13T10:02:30;1.00;;;1.00;;
7162;SDS011;3623;47.098;15.446;2023-07-13T10:04:59;1.50;;;1.40;;
7162;SDS011;3623;47.098;15.446;2023-07-13T10:07:28;1.10;;;1.10;;
7162;SDS011;3623;47.098;15.446;2023-07-13T10:09:57;1.40;;;1.30;;
7162;SDS011;3623;47.098;15.446;2023-07-13T10:12:27;1.77;;;1.67;;
7162;SDS011;3623;47.098;15.446;2023-07-13T10:14:56;1.40;;;1.40;;
7162;SDS011;3623;47.098;15.446;2023-07-13T10:17:30;1.13;;;1.03;;
7162;SDS011;3623;47.098;15.446;2023-07-13T10:19:59;1.47;;;1.37;;
7162;SDS011;3623;47.098;15.446;2023-07-13T10:22:32;1.37;;;1.27;;
7162;SDS011;3623;47.098;15.446;2023-07-13T10:25:12;1.10;;;1.10;;
7162;SDS011;3623;47.098;15.446;2023-07-13T10:27:43;1.70;;;1.60;;
7162;SDS011;3623;47.098;15.446;2023-07-13T10:30:13;0.80;;;0.80;;
7162;SDS011;3623;47.098;15.446;2023-07-13T10:32:48;2.70;;;1.33;;
7162;SDS011;3623;47.098;15.446;2023-07-13T10:35:18;1.30;;;1.30;;
7162;SDS011;3623;47.098;15.446;2023-07-13T10:37:48;1.10;;;1.10;;
7162;SDS011;3623;47.098;15.446;2023-07-13T10:40:19;1.50;;;1.40;;
7162;SDS011;3623;47.098;15.446;2023-07-13T10:42:56;1.40;;;1.40;;
7162;SDS011;3623;47.098;15.446;2023-07-13T10:45:28;2.37;;;1.37;;
7162;SDS011;3623;47.098;15.446;2023-07-13T10:48:02;1.93;;;1.17;;
7162;SDS011;3623;47.098;15.446;2023-07-13T10:50:32;2.83;;;1.60;;
7162;SDS011;3623;47.098;15.446;2023-07-13T10:53:01;1.63;;;1.53;;
7162;SDS011;3623;47.098;15.446;2023-07-13T10:55:31;1.50;;;1.50;;
7162;SDS011;3623;47.098;15.446;2023-07-13T10:58:28;1.70;;;1.60;;
7162;SDS011;3623;47.098;15.446;2023-07-13T11:01:00;1.00;;;1.00;;
7162;SDS011;3623;47.098;15.446;2023-07-13T11:03:36;1.67;;;1.57;;
7162;SDS011;3623;47.098;15.446;2023-07-13T11:06:15;1.33;;;1.20;;
7162;SDS011;3623;47.098;15.446;2023-07-13T11:08:52;1.13;;;1.03;;
7162;SDS011;3623;47.098;15.446;2023-07-13T11:12:00;1.37;;;1.27;;
7162;SDS011;3623;47.098;15.446;2023-07-13T11:14:44;1.90;;;1.23;;
7162;SDS011;3623;47.098;15.446;2023-07-13T11:17:36;1.47;;;1.47;;
7162;SDS011;3623;47.098;15.446;2023-07-13T11:23:51;1.30;;;1.20;;
7162;SDS011;3623;47.098;15.446;2023-07-13T11:26:38;1.43;;;1.43;;
7162;SDS011;3623;47.098;15.446;2023-07-13T11:29:08;1.20;;;1.20;;
7162;SDS011;3623;47.098;15.446;2023-07-13T11:31:36;1.77;;;1.67;;
7162;SDS011;3623;47.098;15.446;2023-07-13T11:34:29;1.77;;;1.10;;
7162;SDS011;3623;47.098;15.446;2023-07-13T11:37:27;1.53;;;1.43;;
7162;SDS011;3623;47.098;15.446;2023-07-13T11:40:20;4.10;;;1.90;;
7162;SDS011;3623;47.098;15.446;2023-07-13T11:46:57;2.40;;;1.50;;
7162;SDS011;3623;47.098;15.446;2023-07-13T11:49:42;1.30;;;1.30;;
7162;SDS011;3623;47.098;15.446;2023-07-13T11:52:26;2.10;;;1.27;;
7162;SDS011;3623;47.098;15.446;2023-07-13T11:55:00;2.90;;;1.77;;
7162;SDS011;3623;47.098;15.446;2023-07-13T11:57:32;3.27;;;1.13;;
7162;SDS011;3623;47.098;15.446;2023-07-13T12:00:03;1.33;;;1.30;;
7162;SDS011;3623;47.098;15.446;2023-07-13T12:02:42;2.10;;;1.73;;
7162;SDS011;3623;47.098;15.446;2023-07-13T12:05:11;1.70;;;1.60;;
7162;SDS011;3623;47.098;15.446;2023-07-13T12:07:43;1.80;;;1.70;;
7162;SDS011;3623;47.098;15.446;2023-07-13T12:10:15;1.20;;;1.20;;
7162;SDS011;3623;47.098;15.446;2023-07-13T12:12:48;1.43;;;1.33;;
7162;SDS011;3623;47.098;15.446;2023-07-13T12:15:19;1.77;;;1.67;;
7162;SDS011;3623;47.098;15.446;2023-07-13T12:17:48;1.70;;;1.60;;
7162;SDS011;3623;47.098;15.446;2023-07-13T12:20:20;1.87;;;1.77;;
7162;SDS011;3623;47.098;15.446;2023-07-13T12:22:51;1.50;;;1.40;;
7162;SDS011;3623;47.098;15.446;2023-07-13T12:25:20;3.70;;;2.10;;
7162;SDS011;3623;47.098;15.446;2023-07-13T12:27:51;1.60;;;1.50;;
7162;SDS011;3623;47.098;15.446;2023-07-13T12:30:25;1.63;;;1.53;;
7162;SDS011;3623;47.098;15.446;2023-07-13T12:32:56;2.23;;;1.70;;
7162;SDS011;3623;47.098;15.446;2023-07-13T12:35:26;1.87;;;1.63;;
7162;SDS011;3623;47.098;15.446;2023-07-13T12:37:58;1.50;;;1.50;;
7162;SDS011;3623;47.098;15.446;2023-07-13T12:40:28;1.40;;;1.40;;
7162;SDS011;3623;47.098;15.446;2023-07-13T12:43:03;2.20;;;2.00;;
7162;SDS011;3623;47.098;15.446;2023-07-13T12:45:32;4.83;;;1.43;;
7162;SDS011;3623;47.098;15.446;2023-07-13T12:48:03;2.10;;;2.00;;
7162;SDS011;3623;47.098;15.446;2023-07-13T12:50:36;2.10;;;1.90;;
7162;SDS011;3623;47.098;15.446;2023-07-13T12:53:13;2.03;;;1.93;;
7162;SDS011;3623;47.098;15.446;2023-07-13T12:55:43;2.93;;;2.10;;
7162;SDS011;3623;47.098;15.446;2023-07-13T12:58:17;1.53;;;1.30;;
7162;SDS011;3623;47.098;15.446;2023-07-13T13:00:48;2.27;;;2.07;;
7162;SDS011;3623;47.098;15.446;2023-07-13T13:03:21;2.00;;;1.90;;
7162;SDS011;3623;47.098;15.446;2023-07-13T13:05:59;2.00;;;1.90;;
7162;SDS011;3623;47.098;15.446;2023-07-13T13:08:28;1.83;;;1.73;;
7162;SDS011;3623;47.098;15.446;2023-07-13T13:10:58;1.67;;;1.50;;
7162;SDS011;3623;47.098;15.446;2023-07-13T13:13:28;2.27;;;2.17;;
7162;SDS011;3623;47.098;15.446;2023-07-13T13:17:39;3.10;;;2.33;;
7162;SDS011;3623;47.098;15.446;2023-07-13T13:19:49;1.60;;;1.50;;
7162;SDS011;3623;47.098;15.446;2023-07-13T13:22:41;4.57;;;2.23;;
7162;SDS011;3623;47.098;15.446;2023-07-13T13:25:09;2.30;;;2.20;;
7162;SDS011;3623;47.098;15.446;2023-07-13T13:27:48;2.30;;;1.77;;
7162;SDS011;3623;47.098;15.446;2023-07-13T13:30:45;2.50;;;2.30;;
7162;SDS011;3623;47.098;15.446;2023-07-13T13:33:34;2.10;;;2.00;;
7162;SDS011;3623;47.098;15.446;2023-07-13T13:36:03;1.90;;;1.80;;
7162;SDS011;3623;47.098;15.446;2023-07-13T13:38:31;1.97;;;1.87;;
7162;SDS011;3623;47.098;15.446;2023-07-13T13:40:59;2.00;;;1.90;;
7162;SDS011;3623;47.098;15.446;2023-07-13T13:43:27;2.20;;;1.97;;
7162;SDS011;3623;47.098;15.446;2023-07-13T13:45:57;2.07;;;1.97;;
7162;SDS011;3623;47.098;15.446;2023-07-13T13:48:28;1.87;;;1.77;;
7162;SDS011;3623;47.098;15.446;2023-07-13T13:50:57;2.10;;;2.00;;
7162;SDS011;3623;47.098;15.446;2023-07-13T13:53:27;2.17;;;1.77;;
7162;SDS011;3623;47.098;15.446;2023-07-13T13:55:54;1.83;;;1.73;;
7162;SDS011;3623;47.098;15.446;2023-07-13T13:58:22;3.23;;;2.00;;
7162;SDS011;3623;47.098;15.446;2023-07-13T14:00:49;3.77;;;1.83;;
7162;SDS011;3623;47.098;15.446;2023-07-13T14:03:19;2.17;;;1.67;;
7162;SDS011;3623;47.098;15.446;2023-07-13T14:05:48;1.97;;;1.87;;
7162;SDS011;3623;47.098;15.446;2023-07-13T14:08:17;1.33;;;1.23;;
7162;SDS011;3623;47.098;15.446;2023-07-13T14:10:46;1.30;;;1.30;;
7162;SDS011;3623;47.098;15.446;2023-07-13T14:13:16;1.93;;;1.83;;
7162;SDS011;3623;47.098;15.446;2023-07-13T14:15:46;2.90;;;1.77;;
7162;SDS011;3623;47.098;15.446;2023-07-13T14:18:14;2.10;;;2.00;;
7162;SDS011;3623;47.098;15.446;2023-07-13T14:20:45;4.10;;;1.80;;
7162;SDS011;3623;47.098;15.446;2023-07-13T14:23:15;1.67;;;1.57;;
7162;SDS011;3623;47.098;15.446;2023-07-13T14:25:44;1.80;;;1.70;;
7162;SDS011;3623;47.098;15.446;2023-07-13T14:28:21;2.17;;;1.93;;
7162;SDS011;3623;47.098;15.446;2023-07-13T14:30:52;1.80;;;1.70;;
7162;SDS011;3623;47.098;15.446;2023-07-13T14:33:21;2.33;;;1.70;;
7162;SDS011;3623;47.098;15.446;2023-07-13T14:35:52;2.30;;;2.10;;
7162;SDS011;3623;47.098;15.446;2023-07-13T14:38:20;2.17;;;1.80;;
7162;SDS011;3623;47.098;15.446;2023-07-13T14:40:48;1.87;;;1.77;;
7162;SDS011;3623;47.098;15.446;2023-07-13T14:43:16;2.00;;;1.90;;
7162;SDS011;3623;47.098;15.446;2023-07-13T14:48:22;1.97;;;1.87;;
7162;SDS011;3623;47.098;15.446;2023-07-13T14:50:53;2.03;;;1.60;;
7162;SDS011;3623;47.098;15.446;2023-07-13T14:53:35;2.43;;;1.77;;
7162;SDS011;3623;47.098;15.446;2023-07-13T14:56:08;2.97;;;2.00;;
7162;SDS011;3623;47.098;15.446;2023-07-13T15:02:17;2.43;;;1.67;;
7162;SDS011;3623;47.098;15.446;2023-07-13T15:05:13;1.90;;;1.73;;
7162;SDS011;3623;47.098;15.446;2023-07-13T15:07:45;2.00;;;1.90;;
7162;SDS011;3623;47.098;15.446;2023-07-13T15:13:56;2.20;;;2.10;;
7162;SDS011;3623;47.098;15.446;2023-07-13T15:16:46;2.73;;;2.40;;
7162;SDS011;3623;47.098;15.446;2023-07-13T15:19:34;3.73;;;2.00;;
7162;SDS011;3623;47.098;15.446;2023-07-13T15:22:32;2.20;;;2.00;;
7162;SDS011;3623;47.098;15.446;2023-07-13T15:32:14;5.33;;;2.53;;
7162;SDS011;3623;47.098;15.446;2023-07-13T15:38:12;3.43;;;2.80;;
7162;SDS011;3623;47.098;15.446;2023-07-13T15:44:19;5.07;;;3.13;;
7162;SDS011;3623;47.098;15.446;2023-07-13T15:46:53;4.30;;;3.90;;
7162;SDS011;3623;47.098;15.446;2023-07-13T15:49:21;8.83;;;4.13;;
7162;SDS011;3623;47.098;15.446;2023-07-13T15:51:48;3.90;;;3.60;;
7162;SDS011;3623;47.098;15.446;2023-07-13T15:54:17;5.33;;;4.30;;
7162;SDS011;3623;47.098;15.446;2023-07-13T15:56:51;6.40;;;4.90;;
7162;SDS011;3623;47.098;15.446;2023-07-13T15:59:21;5.93;;;3.93;;
7162;SDS011;3623;47.098;15.446;2023-07-13T16:11:42;4.03;;;3.40;;
7162;SDS011;3623;47.098;15.446;2023-07-13T16:14:20;4.80;;;3.67;;
7162;SDS011;3623;47.098;15.446;2023-07-13T16:17:19;3.47;;;3.27;;
7162;SDS011;3623;47.098;15.446;2023-07-13T16:27:38;6.27;;;5.77;;
7162;SDS011;3623;47.098;15.446;2023-07-13T16:37:33;8.03;;;4.30;;
7162;SDS011;3623;47.098;15.446;2023-07-13T16:45:03;4.10;;;3.80;;